createdAt,value
2023-02-14T00:01:20.624Z,11.90
2023-02-14T00:03:49.496Z,12.50
2023-02-14T00:06:17.516Z,11.95
2023-02-14T00:08:45.030Z,12.45
2023-02-14T00:11:14.114Z,17.23
2023-02-14T00:14:01.496Z,12.20
2023-02-14T00:16:28.971Z,15.52
2023-02-14T00:19:03.382Z,11.45
2023-02-14T00:21:32.375Z,11.43
2023-02-14T00:23:59.737Z,15.68
2023-02-14T00:26:27.143Z,14.02
2023-02-14T00:28:54.446Z,11.10
2023-02-14T00:31:24.327Z,11.15
2023-02-14T00:33:51.617Z,12.35
2023-02-14T00:36:20.080Z,12.18
2023-02-14T00:38:47.315Z,12.68
2023-02-14T00:41:19.224Z,13.20
2023-02-14T00:43:48.184Z,9.23
2023-02-14T00:46:16.911Z,11.73
2023-02-14T00:48:44.636Z,9.90
2023-02-14T00:51:12.467Z,15.10
2023-02-14T00:53:40.317Z,13.13
2023-02-14T00:56:08.510Z,13.02
2023-02-14T00:58:36.421Z,10.23
2023-02-14T01:01:03.865Z,12.52
2023-02-14T01:03:31.495Z,12.30
2023-02-14T01:05:58.926Z,10.20
2023-02-14T01:08:26.639Z,12.73
2023-02-14T01:10:54.017Z,12.02
2023-02-14T01:13:21.703Z,10.50
2023-02-14T01:15:51.113Z,10.48
2023-02-14T01:18:19.422Z,11.15
2023-02-14T01:20:49.028Z,12.20
2023-02-14T01:23:16.305Z,10.98
2023-02-14T01:25:43.558Z,11.10
2023-02-14T01:28:10.819Z,11.20
2023-02-14T01:30:38.198Z,9.68
2023-02-14T01:33:05.512Z,10.65
2023-02-14T01:35:38.083Z,12.63
2023-02-14T01:38:05.415Z,11.95
2023-02-14T01:40:32.732Z,11.40
2023-02-14T01:43:00.045Z,12.88
2023-02-14T01:45:28.283Z,10.90
2023-02-14T01:47:58.764Z,10.63
2023-02-14T01:50:34.478Z,11.27
2023-02-14T01:53:08.970Z,12.65
2023-02-14T01:55:41.512Z,10.20
2023-02-14T01:58:13.742Z,11.65
2023-02-14T02:00:57.991Z,12.87
2023-02-14T02:03:31.808Z,12.18
2023-02-14T02:06:14.396Z,10.98
2023-02-14T02:08:56.174Z,10.20
2023-02-14T02:11:23.600Z,12.25
2023-02-14T02:13:50.940Z,10.65
2023-02-14T02:16:55.488Z,11.77
2023-02-14T02:19:42.289Z,11.18
2023-02-14T02:22:21.499Z,10.80
2023-02-14T02:25:19.704Z,12.13
2023-02-14T02:28:04.476Z,11.98
2023-02-14T02:30:51.006Z,10.20
2023-02-14T02:33:46.127Z,10.55
2023-02-14T02:36:56.126Z,12.23
2023-02-14T02:39:44.106Z,11.23
2023-02-14T02:42:34.104Z,10.98
2023-02-14T02:45:22.627Z,11.18
2023-02-14T02:48:04.864Z,10.70
2023-02-14T02:50:56.839Z,11.57
2023-02-14T02:53:51.694Z,12.38
2023-02-14T02:56:49.789Z,12.10
2023-02-14T02:59:26.102Z,10.80
2023-02-14T03:02:15.171Z,9.95
2023-02-14T03:04:55.033Z,11.32
2023-02-14T03:07:39.762Z,10.63
2023-02-14T03:10:23.841Z,10.55
2023-02-14T03:13:14.372Z,10.52
2023-02-14T03:15:44.871Z,10.88
2023-02-14T03:18:33.749Z,9.15
2023-02-14T03:21:33.650Z,10.07
2023-02-14T03:24:16.001Z,10.75
2023-02-14T03:26:54.622Z,9.75
2023-02-14T03:30:08.165Z,11.75
2023-02-14T03:33:02.992Z,9.75
2023-02-14T03:35:32.092Z,9.27
2023-02-14T03:38:07.788Z,9.15
2023-02-14T03:41:23.882Z,8.48
2023-02-14T03:43:59.569Z,9.55
2023-02-14T03:46:52.109Z,10.52
2023-02-14T03:49:24.172Z,10.70
2023-02-14T03:51:55.089Z,9.77
2023-02-14T03:54:24.484Z,9.55
2023-02-14T03:57:00.616Z,8.40
2023-02-14T03:59:29.273Z,8.70
2023-02-14T04:02:19.925Z,9.18
2023-02-14T04:04:49.910Z,11.25
2023-02-14T04:07:20.248Z,10.73
2023-02-14T04:09:48.776Z,8.38
2023-02-14T04:12:21.688Z,8.85
2023-02-14T04:14:51.254Z,10.00
2023-02-14T04:17:37.001Z,9.07
2023-02-14T04:20:05.095Z,10.30
2023-02-14T04:22:32.334Z,10.10
2023-02-14T04:24:59.579Z,8.90
2023-02-14T04:27:26.779Z,11.45
2023-02-14T04:29:54.110Z,8.32
2023-02-14T04:32:22.563Z,9.52
2023-02-14T04:34:50.430Z,9.30
2023-02-14T04:37:19.759Z,9.45
2023-02-14T04:39:47.190Z,9.35
2023-02-14T04:42:14.917Z,7.30
2023-02-14T04:44:42.494Z,8.35
2023-02-14T04:47:09.811Z,8.00
2023-02-14T04:49:37.057Z,10.38
2023-02-14T04:52:05.299Z,8.60
2023-02-14T04:54:32.978Z,8.25
2023-02-14T04:57:00.694Z,11.05
2023-02-14T04:59:28.020Z,11.50
2023-02-14T05:01:55.387Z,8.95
2023-02-14T05:04:22.729Z,8.00
2023-02-14T05:06:50.027Z,7.90
2023-02-14T05:09:17.322Z,9.27
2023-02-14T05:11:44.592Z,9.82
2023-02-14T05:14:12.081Z,9.57
2023-02-14T05:16:39.470Z,10.68
2023-02-14T05:19:06.820Z,9.43
2023-02-14T05:21:34.446Z,8.15
2023-02-14T05:24:01.969Z,10.38
2023-02-14T05:26:29.372Z,9.43
2023-02-14T05:28:56.837Z,8.57
2023-02-14T05:31:24.398Z,9.93
2023-02-14T05:33:51.716Z,11.00
2023-02-14T05:36:18.968Z,9.20
2023-02-14T05:38:46.359Z,8.63
2023-02-14T05:41:13.709Z,8.20
2023-02-14T05:43:41.444Z,9.32
2023-02-14T05:46:09.182Z,8.93
2023-02-14T05:48:36.572Z,7.35
2023-02-14T05:51:09.441Z,9.10
2023-02-14T05:53:37.497Z,8.05
2023-02-14T05:56:05.604Z,7.95
2023-02-14T05:58:33.472Z,7.85
2023-02-14T06:01:01.644Z,8.35
2023-02-14T06:03:29.172Z,7.68
2023-02-14T06:05:56.380Z,8.93
2023-02-14T06:08:23.596Z,10.18
2023-02-14T06:10:51.113Z,10.23
2023-02-14T06:13:18.405Z,8.27
2023-02-14T06:15:45.873Z,8.35
2023-02-14T06:18:13.232Z,9.75
2023-02-14T06:20:40.505Z,7.93
2023-02-14T06:23:07.864Z,7.88
2023-02-14T06:25:35.372Z,10.70
2023-02-14T06:28:02.670Z,9.13
2023-02-14T06:30:30.192Z,8.68
2023-02-14T06:32:57.608Z,9.38
2023-02-14T06:35:24.960Z,7.53
2023-02-14T06:37:52.205Z,8.20
2023-02-14T06:40:19.766Z,7.95
2023-02-14T06:42:47.086Z,9.77
2023-02-14T06:45:14.396Z,8.80
2023-02-14T06:47:41.682Z,8.93
2023-02-14T06:50:11.685Z,8.68
2023-02-14T06:52:39.345Z,10.88
2023-02-14T06:55:07.139Z,8.25
2023-02-14T06:57:34.355Z,7.80
2023-02-14T07:00:01.635Z,8.77
2023-02-14T07:02:28.879Z,9.77
2023-02-14T07:04:56.135Z,9.77
2023-02-14T07:07:23.516Z,8.18
2023-02-14T07:09:51.697Z,9.38
2023-02-14T07:12:19.003Z,8.73
2023-02-14T07:14:46.253Z,9.02
2023-02-14T07:17:13.505Z,8.90
2023-02-14T07:19:40.799Z,9.00
2023-02-14T07:22:08.010Z,9.40
2023-02-14T07:24:35.309Z,10.35
2023-02-14T07:27:02.560Z,9.38
2023-02-14T07:29:29.845Z,9.93
2023-02-14T07:31:57.187Z,11.73
2023-02-14T07:34:24.801Z,9.25
2023-02-14T07:36:52.222Z,9.77
2023-02-14T07:39:19.464Z,9.15
2023-02-14T07:41:46.637Z,12.25
2023-02-14T07:44:17.205Z,9.07
2023-02-14T07:46:44.468Z,9.27
2023-02-14T07:49:12.077Z,11.27
2023-02-14T07:51:39.433Z,10.48
2023-02-14T07:54:06.717Z,9.07
2023-02-14T07:56:33.958Z,9.38
2023-02-14T07:59:01.402Z,8.13
2023-02-14T08:01:28.804Z,12.43
2023-02-14T08:03:56.032Z,10.13
2023-02-14T08:06:23.396Z,7.63
2023-02-14T08:08:50.611Z,11.52
2023-02-14T08:11:36.735Z,10.55
2023-02-14T08:14:05.393Z,8.77
2023-02-14T08:16:34.768Z,12.90
2023-02-14T08:19:02.540Z,7.88
2023-02-14T08:21:30.702Z,9.88
2023-02-14T08:23:58.099Z,9.82
2023-02-14T08:26:25.748Z,10.80
2023-02-14T08:28:53.282Z,11.98
2023-02-14T08:31:35.066Z,18.23
2023-02-14T08:34:07.510Z,17.80
2023-02-14T08:36:35.345Z,18.73
2023-02-14T08:39:04.505Z,20.30
2023-02-14T08:41:32.251Z,17.63
2023-02-14T08:43:59.748Z,17.50
2023-02-14T08:46:27.157Z,17.10
2023-02-14T08:48:54.989Z,17.00
2023-02-14T08:51:22.970Z,20.20
2023-02-14T08:53:51.634Z,20.75
2023-02-14T08:56:21.451Z,15.15
2023-02-14T08:58:53.136Z,16.38
2023-02-14T09:01:21.111Z,15.13
2023-02-14T09:03:48.499Z,12.98
2023-02-14T09:06:17.511Z,15.93
2023-02-14T09:08:45.726Z,18.77
2023-02-14T09:11:22.773Z,19.33
2023-02-14T09:13:53.246Z,25.50
2023-02-14T09:16:22.203Z,24.75
2023-02-14T09:18:49.774Z,33.47
2023-02-14T09:21:20.609Z,40.08
2023-02-14T09:23:47.917Z,28.63
2023-02-14T09:26:16.352Z,26.45
2023-02-14T09:28:44.596Z,29.42
2023-02-14T09:31:16.848Z,27.83
2023-02-14T09:33:45.324Z,42.90
2023-02-14T09:36:30.906Z,45.35
2023-02-14T09:38:58.178Z,48.42
2023-02-14T09:41:25.437Z,50.95
2023-02-14T09:44:24.495Z,45.05
2023-02-14T09:46:54.841Z,48.00
2023-02-14T09:49:33.144Z,48.15
2023-02-14T09:52:03.237Z,49.35
2023-02-14T09:54:33.304Z,47.95
2023-02-14T09:57:11.461Z,49.28
2023-02-14T09:59:50.576Z,45.15
2023-02-14T10:02:47.391Z,51.67
2023-02-14T10:05:21.988Z,51.92
2023-02-14T10:08:37.532Z,45.40
2023-02-14T10:11:15.754Z,47.38
2023-02-14T10:13:49.289Z,45.90
2023-02-14T10:16:28.345Z,47.70
2023-02-14T10:19:02.362Z,46.90
2023-02-14T10:21:38.271Z,47.53
2023-02-14T10:24:18.925Z,47.08
2023-02-14T10:26:49.454Z,45.28
2023-02-14T10:29:19.606Z,42.42
2023-02-14T10:31:57.731Z,44.85
2023-02-14T10:34:36.079Z,43.58
2023-02-14T10:37:37.481Z,42.83
2023-02-14T10:40:04.737Z,37.83
2023-02-14T10:42:38.193Z,38.50
2023-02-14T10:45:17.461Z,36.17
2023-02-14T10:48:08.417Z,34.33
2023-02-14T10:50:46.886Z,35.75
2023-02-14T10:53:32.830Z,36.55
2023-02-14T10:56:08.503Z,35.92
2023-02-14T10:58:40.075Z,36.63
2023-02-14T11:01:13.701Z,27.98
2023-02-14T11:03:47.189Z,32.72
2023-02-14T11:06:14.841Z,26.60
2023-02-14T11:08:42.209Z,26.92
2023-02-14T11:11:25.410Z,24.25
2023-02-14T11:13:52.846Z,25.77
2023-02-14T11:16:37.254Z,24.20
2023-02-14T11:19:20.116Z,24.15
2023-02-14T11:21:49.669Z,23.35
2023-02-14T11:24:25.525Z,22.23
2023-02-14T11:26:55.759Z,20.88
2023-02-14T11:29:33.371Z,21.35
2023-02-14T11:32:24.336Z,20.77
2023-02-14T11:34:59.737Z,18.65
2023-02-14T11:37:37.137Z,18.63
2023-02-14T11:40:05.990Z,21.45
2023-02-14T11:42:35.884Z,17.80
2023-02-14T11:45:05.367Z,17.02
2023-02-14T11:47:41.735Z,16.80
2023-02-14T11:50:24.807Z,19.60
2023-02-14T11:52:55.625Z,17.90
2023-02-14T11:55:34.476Z,15.40
2023-02-14T11:58:05.456Z,16.92
2023-02-14T12:00:33.788Z,16.10
2023-02-14T12:03:05.752Z,16.33
2023-02-14T12:05:46.868Z,16.60
2023-02-14T12:08:14.786Z,15.85
2023-02-14T12:10:42.321Z,14.95
2023-02-14T12:13:09.529Z,12.77
2023-02-14T12:15:42.701Z,14.38
2023-02-14T12:18:54.154Z,15.00
2023-02-14T12:21:45.663Z,15.13
2023-02-14T12:24:33.561Z,12.63
2023-02-14T12:27:16.434Z,15.88
2023-02-14T12:29:59.818Z,13.20
2023-02-14T12:35:04.367Z,12.25
2023-02-14T12:38:03.816Z,13.02
2023-02-14T12:40:38.175Z,12.77
2023-02-14T12:43:20.713Z,14.10
2023-02-14T12:46:08.570Z,14.30
2023-02-14T12:49:22.583Z,12.15
2023-02-14T12:51:58.910Z,12.40
2023-02-14T12:54:41.274Z,12.48
2023-02-14T12:57:19.003Z,13.05
2023-02-14T13:00:01.374Z,13.73
2023-02-14T13:03:02.617Z,11.05
2023-02-14T13:05:49.470Z,11.52
2023-02-14T13:08:42.580Z,11.93
2023-02-14T13:11:38.944Z,10.65
2023-02-14T13:14:33.068Z,13.27
2023-02-14T13:17:15.020Z,10.73
2023-02-14T13:19:59.926Z,11.15
2023-02-14T13:22:29.810Z,12.93
2023-02-14T13:25:01.260Z,11.32
2023-02-14T13:27:33.229Z,10.50
2023-02-14T13:30:12.067Z,12.95
2023-02-14T13:32:42.590Z,11.50
2023-02-14T13:35:17.093Z,12.93
2023-02-14T13:38:02.769Z,10.38
2023-02-14T13:40:32.071Z,10.32
2023-02-14T13:43:01.214Z,12.15
2023-02-14T13:45:32.540Z,11.77
2023-02-14T13:48:05.837Z,10.77
2023-02-14T13:50:37.831Z,10.48
2023-02-14T13:53:05.420Z,12.18
2023-02-14T13:55:36.231Z,13.20
2023-02-14T13:58:16.203Z,12.90
2023-02-14T14:00:46.857Z,12.02
2023-02-14T14:03:36.756Z,11.38
2023-02-14T14:06:04.147Z,10.98
2023-02-14T14:08:32.025Z,12.27
2023-02-14T14:11:01.982Z,10.65
2023-02-14T14:13:41.473Z,12.48
2023-02-14T14:16:24.416Z,11.77
2023-02-14T14:18:52.801Z,10.48
2023-02-14T14:21:23.114Z,10.85
2023-02-14T14:24:23.756Z,10.40
2023-02-14T14:26:53.236Z,10.93
2023-02-14T14:29:29.876Z,10.75
2023-02-14T14:31:57.645Z,10.80
2023-02-14T14:34:27.994Z,11.40
2023-02-14T14:37:07.332Z,9.70
2023-02-14T14:39:36.172Z,10.52
2023-02-14T14:42:09.913Z,11.32
2023-02-14T14:44:54.515Z,9.82
2023-02-14T14:47:24.888Z,10.90
2023-02-14T14:49:54.625Z,10.65
2023-02-14T14:52:33.412Z,10.27
2023-02-14T14:55:02.302Z,9.82
2023-02-14T14:57:29.588Z,10.45
2023-02-14T15:00:23.101Z,11.05
2023-02-14T15:03:04.581Z,9.13
2023-02-14T15:05:38.367Z,10.23
2023-02-14T15:08:21.695Z,11.23
2023-02-14T15:11:44.742Z,9.95
2023-02-14T15:14:18.374Z,10.20
2023-02-14T15:16:47.082Z,9.73
2023-02-14T15:19:26.739Z,9.07
2023-02-14T15:21:54.022Z,9.07
2023-02-14T15:24:21.365Z,9.77
2023-02-14T15:26:51.991Z,9.52
2023-02-14T15:29:23.653Z,9.77
2023-02-14T15:31:51.760Z,9.77
2023-02-14T15:34:29.987Z,9.73
2023-02-14T15:37:03.634Z,10.02
2023-02-14T15:39:40.920Z,9.63
2023-02-14T15:42:43.710Z,10.38
2023-02-14T15:45:21.238Z,8.82
2023-02-14T15:47:52.900Z,8.40
2023-02-14T15:50:26.023Z,8.50
2023-02-14T15:55:38.717Z,10.07
2023-02-14T15:58:17.845Z,10.95
2023-02-14T16:00:45.360Z,10.70
2023-02-14T16:03:20.687Z,9.68
2023-02-14T16:05:49.698Z,10.52
2023-02-14T16:08:29.532Z,9.50
2023-02-14T16:11:37.203Z,9.93
2023-02-14T16:14:36.528Z,10.48
2023-02-14T16:17:07.289Z,10.20
2023-02-14T16:19:38.319Z,10.85
2023-02-14T16:22:07.115Z,11.20
2023-02-14T16:24:35.985Z,10.10
2023-02-14T16:27:07.006Z,9.13
2023-02-14T16:29:36.240Z,11.77
2023-02-14T16:32:17.370Z,11.05
2023-02-14T16:34:47.451Z,13.30
2023-02-14T16:37:28.072Z,11.40
2023-02-14T16:39:59.243Z,12.77
2023-02-14T16:42:26.608Z,11.45
2023-02-14T16:44:54.206Z,13.63
2023-02-14T16:47:21.732Z,15.65
2023-02-14T16:49:50.678Z,13.35
2023-02-14T16:52:23.792Z,12.07
2023-02-14T16:54:52.175Z,14.40
2023-02-14T16:57:19.348Z,13.95
2023-02-14T16:59:47.128Z,10.77
2023-02-14T17:02:16.009Z,12.13
2023-02-14T17:04:43.268Z,13.13
2023-02-14T17:07:12.155Z,12.73
2023-02-14T17:09:42.920Z,14.52
2023-02-14T17:12:16.441Z,15.68
2023-02-14T17:14:48.529Z,14.98
2023-02-14T17:17:16.627Z,13.30
2023-02-14T17:19:44.291Z,13.77
2023-02-14T17:22:13.590Z,16.05
2023-02-14T17:24:41.449Z,13.25
2023-02-14T17:27:08.812Z,13.40
2023-02-14T17:29:36.151Z,13.50
2023-02-14T17:32:03.568Z,13.45
2023-02-14T17:34:32.465Z,13.43
2023-02-14T17:37:00.024Z,13.70
2023-02-14T17:39:27.205Z,12.48
2023-02-14T17:41:56.618Z,13.15
2023-02-14T17:44:24.095Z,11.20
2023-02-14T17:46:53.281Z,14.70
2023-02-14T17:49:20.658Z,9.98
2023-02-14T17:51:47.879Z,13.95
2023-02-14T17:54:15.113Z,16.73
2023-02-14T17:56:42.451Z,13.68
2023-02-14T17:59:09.706Z,13.68
2023-02-14T18:01:36.898Z,14.63
2023-02-14T18:04:05.666Z,17.92
2023-02-14T18:06:33.517Z,15.20
2023-02-14T18:09:04.551Z,16.65
2023-02-14T18:11:32.031Z,13.23
2023-02-14T18:13:59.906Z,14.32
2023-02-14T18:16:27.385Z,14.70
2023-02-14T18:18:55.005Z,12.95
2023-02-14T18:21:24.510Z,16.10
2023-02-14T18:23:52.012Z,13.32
2023-02-14T18:26:19.769Z,13.43
2023-02-14T18:28:47.012Z,13.68
2023-02-14T18:31:18.070Z,15.23
2023-02-14T18:33:46.893Z,14.77
2023-02-14T18:36:19.953Z,13.18
2023-02-14T18:41:18.038Z,15.02
2023-02-14T18:43:45.599Z,16.05
2023-02-14T18:46:22.271Z,15.05
2023-02-14T18:48:49.945Z,14.30
2023-02-14T18:51:19.013Z,13.40
2023-02-14T18:53:47.471Z,13.10
2023-02-14T18:56:17.222Z,14.52
2023-02-14T18:58:48.031Z,13.93
2023-02-14T19:01:18.234Z,15.15
2023-02-14T19:03:45.610Z,12.90
2023-02-14T19:06:13.164Z,12.15
2023-02-14T19:08:41.049Z,13.25
2023-02-14T19:11:19.992Z,14.27
2023-02-14T19:13:53.473Z,15.45
2023-02-14T19:16:27.481Z,14.50
2023-02-14T19:18:55.037Z,17.35
2023-02-14T19:21:25.275Z,15.60
2023-02-14T19:23:56.061Z,15.85
2023-02-14T19:26:32.879Z,19.13
2023-02-14T19:29:03.433Z,13.43
2023-02-14T19:31:30.899Z,14.40
2023-02-14T19:33:58.156Z,17.10
2023-02-14T19:36:25.428Z,15.23
2023-02-14T19:38:54.130Z,16.42
2023-02-14T19:41:23.015Z,13.75
2023-02-14T19:43:51.455Z,12.63
2023-02-14T19:46:20.421Z,12.23
2023-02-14T19:48:48.734Z,17.98
2023-02-14T19:51:25.774Z,15.80
2023-02-14T19:53:54.457Z,13.35
2023-02-14T19:56:23.733Z,13.15
2023-02-14T19:58:52.190Z,14.45
2023-02-14T20:01:33.100Z,14.43
2023-02-14T20:04:00.813Z,17.10
2023-02-14T20:06:29.451Z,16.25
2023-02-14T20:08:57.288Z,14.25
2023-02-14T20:11:33.316Z,17.25
2023-02-14T20:14:01.269Z,13.68
2023-02-14T20:16:30.576Z,15.05
2023-02-14T20:18:58.525Z,20.55
2023-02-14T20:21:28.316Z,14.57
2023-02-14T20:24:03.200Z,15.80
2023-02-14T20:26:32.305Z,14.18
2023-02-14T20:29:00.852Z,17.27
2023-02-14T20:31:28.328Z,17.35
2023-02-14T20:33:56.874Z,15.50
2023-02-14T20:36:25.632Z,12.85
2023-02-14T20:38:56.969Z,17.35
2023-02-14T20:41:24.443Z,18.27
2023-02-14T20:43:51.868Z,15.75
2023-02-14T20:46:19.159Z,16.08
2023-02-14T20:48:46.603Z,17.40
2023-02-14T20:51:18.779Z,14.75
2023-02-14T20:53:46.851Z,15.50
2023-02-14T20:56:15.519Z,18.15
2023-02-14T20:58:43.078Z,16.60
2023-02-14T21:01:14.331Z,16.23
2023-02-14T21:03:46.715Z,15.63
2023-02-14T21:06:15.139Z,17.33
2023-02-14T21:08:43.327Z,16.27
2023-02-14T21:11:13.510Z,17.08
2023-02-14T21:13:40.882Z,19.13
2023-02-14T21:16:12.406Z,18.27
2023-02-14T21:18:39.828Z,16.13
2023-02-14T21:21:18.896Z,20.50
2023-02-14T21:23:48.621Z,18.90
2023-02-14T21:26:17.619Z,19.33
2023-02-14T21:28:45.619Z,18.85
2023-02-14T21:31:17.293Z,18.63
2023-02-14T21:33:44.902Z,20.92
2023-02-14T21:36:18.057Z,19.85
2023-02-14T21:41:16.441Z,20.15
2023-02-14T21:43:45.889Z,19.58
2023-02-14T21:46:18.423Z,19.38
2023-02-14T21:49:04.694Z,17.77
2023-02-14T21:51:32.705Z,19.85
2023-02-14T21:53:59.984Z,19.52
2023-02-14T21:56:27.839Z,21.80
2023-02-14T21:58:56.391Z,23.77
2023-02-14T22:01:26.960Z,23.23
2023-02-14T22:03:55.560Z,20.02
2023-02-14T22:06:23.847Z,22.10
2023-02-14T22:08:55.945Z,25.15
2023-02-14T22:11:24.641Z,22.30
2023-02-14T22:13:52.004Z,22.42
2023-02-14T22:16:21.091Z,21.30
2023-02-14T22:18:48.842Z,23.08
2023-02-14T22:21:22.392Z,22.35
2023-02-14T22:23:49.910Z,22.77
2023-02-14T22:26:25.897Z,19.80
2023-02-14T22:28:59.255Z,23.23
2023-02-14T22:31:30.135Z,23.92
2023-02-14T22:33:57.775Z,23.02
2023-02-14T22:36:25.166Z,21.08
2023-02-14T22:38:52.598Z,22.95
2023-02-14T22:41:22.509Z,23.40
2023-02-14T22:43:50.819Z,22.77
2023-02-14T22:46:21.729Z,22.67
2023-02-14T22:48:50.502Z,27.13
2023-02-14T22:51:22.169Z,24.60
2023-02-14T22:53:51.074Z,25.67
2023-02-14T22:56:27.717Z,28.40
2023-02-14T22:58:57.258Z,21.70
2023-02-14T23:01:24.997Z,21.92
2023-02-14T23:03:54.570Z,22.83
2023-02-14T23:06:22.874Z,22.80
2023-02-14T23:08:50.306Z,23.95
2023-02-14T23:11:21.147Z,22.55
2023-02-14T23:14:07.261Z,22.75
2023-02-14T23:16:53.335Z,32.58
2023-02-14T23:19:41.776Z,29.55
2023-02-14T23:22:10.456Z,31.27
2023-02-14T23:24:38.117Z,31.50
2023-02-14T23:27:06.012Z,33.67
2023-02-14T23:29:33.631Z,29.65
2023-02-14T23:32:00.977Z,27.88
2023-02-14T23:34:31.047Z,25.77
2023-02-14T23:36:58.705Z,25.60
2023-02-14T23:39:26.293Z,27.73
2023-02-14T23:41:53.720Z,27.40
2023-02-14T23:44:22.566Z,26.65
2023-02-14T23:46:51.912Z,23.88
2023-02-14T23:49:19.329Z,26.27
2023-02-14T23:51:47.995Z,24.52
2023-02-14T23:54:16.116Z,25.95
2023-02-14T23:56:43.926Z,22.30
2023-02-14T23:59:11.904Z,21.20
